createdAt,value
2018-05-09T00:00:59.945Z,5.30
2018-05-09T00:03:27.356Z,4.90
2018-05-09T00:05:55.543Z,5.45
2018-05-09T00:08:23.716Z,5.10
2018-05-09T00:10:51.903Z,5.70
2018-05-09T00:13:20.082Z,5.40
2018-05-09T00:15:47.505Z,5.25
2018-05-09T00:18:14.923Z,6.03
2018-05-09T00:20:42.345Z,5.87
2018-05-09T00:23:09.801Z,5.70
2018-05-09T00:25:37.212Z,5.45
2018-05-09T00:28:04.625Z,5.30
2018-05-09T00:30:32.057Z,5.05
2018-05-09T00:32:59.477Z,5.30
2018-05-09T00:35:26.892Z,6.70
2018-05-09T00:37:54.308Z,5.30
2018-05-09T00:40:21.725Z,5.62
2018-05-09T00:42:49.142Z,5.10
2018-05-09T00:45:16.547Z,5.40
2018-05-09T00:47:44.086Z,5.07
2018-05-09T00:50:11.569Z,4.95
2018-05-09T00:52:39.025Z,5.85
2018-05-09T00:55:06.429Z,5.85
2018-05-09T00:57:33.845Z,5.85
2018-05-09T01:00:02.025Z,5.62
2018-05-09T01:02:30.204Z,5.12
2018-05-09T01:04:57.708Z,5.22
2018-05-09T01:07:25.133Z,6.12
2018-05-09T01:09:52.537Z,5.22
2018-05-09T01:12:20.721Z,5.57
2018-05-09T01:14:48.904Z,5.60
2018-05-09T01:17:17.088Z,5.95
2018-05-09T01:19:45.292Z,5.00
2018-05-09T01:22:12.714Z,5.53
2018-05-09T01:24:40.120Z,5.50
2018-05-09T01:27:08.302Z,5.80
2018-05-09T01:29:36.505Z,5.15
2018-05-09T01:32:03.923Z,5.93
2018-05-09T01:34:31.329Z,5.00
2018-05-09T01:36:59.513Z,6.20
2018-05-09T01:39:27.689Z,5.40
2018-05-09T01:41:55.109Z,5.32
2018-05-09T01:44:22.517Z,5.15
2018-05-09T01:46:51.446Z,5.20
2018-05-09T01:49:19.635Z,5.82
2018-05-09T01:51:47.821Z,5.78
2018-05-09T01:54:15.997Z,5.85
2018-05-09T01:56:44.185Z,6.10
2018-05-09T01:59:12.363Z,5.72
2018-05-09T02:01:39.903Z,5.20
2018-05-09T02:04:07.346Z,5.97
2018-05-09T02:06:35.521Z,6.72
2018-05-09T02:09:02.924Z,5.37
2018-05-09T02:11:30.341Z,5.35
2018-05-09T02:13:58.521Z,5.28
2018-05-09T02:16:26.705Z,6.55
2018-05-09T02:18:54.220Z,6.37
2018-05-09T02:21:22.373Z,5.78
2018-05-09T02:23:50.585Z,6.12
2018-05-09T02:26:18.060Z,5.40
2018-05-09T02:28:45.461Z,6.50
2018-05-09T02:31:12.985Z,5.57
2018-05-09T02:33:40.366Z,6.10
2018-05-09T02:36:07.836Z,5.78
2018-05-09T02:38:35.312Z,6.35
2018-05-09T02:41:02.725Z,6.57
2018-05-09T02:43:30.137Z,6.03
2018-05-09T02:45:57.553Z,6.40
2018-05-09T02:48:24.974Z,6.20
2018-05-09T02:50:52.449Z,6.07
2018-05-09T02:53:19.930Z,6.32
2018-05-09T02:55:47.346Z,6.10
2018-05-09T02:58:15.526Z,5.60
2018-05-09T03:00:42.952Z,5.40
2018-05-09T03:03:10.356Z,5.90
2018-05-09T03:05:37.774Z,5.90
2018-05-09T03:08:05.244Z,6.72
2018-05-09T03:10:32.730Z,6.22
2018-05-09T03:13:00.896Z,5.60
2018-05-09T03:15:29.095Z,5.70
2018-05-09T03:17:56.514Z,6.57
2018-05-09T03:20:24.062Z,6.60
2018-05-09T03:22:51.457Z,5.87
2018-05-09T03:25:18.882Z,6.65
2018-05-09T03:27:46.301Z,6.87
2018-05-09T03:30:13.817Z,6.97
2018-05-09T03:32:41.236Z,7.20
2018-05-09T03:35:08.659Z,6.70
2018-05-09T03:37:36.116Z,7.85
2018-05-09T03:40:03.533Z,7.05
2018-05-09T03:42:30.953Z,6.55
2018-05-09T03:44:59.124Z,6.70
2018-05-09T03:47:27.312Z,6.70
2018-05-09T03:49:55.521Z,6.82
2018-05-09T03:52:23.001Z,7.55
2018-05-09T03:54:50.354Z,6.68
2018-05-09T03:57:17.785Z,6.95
2018-05-09T03:59:45.207Z,5.68
2018-05-09T04:02:24.652Z,6.47
2018-05-09T04:08:04.884Z,6.95
2018-05-09T04:10:32.329Z,7.03
2018-05-09T04:12:59.805Z,6.25
2018-05-09T04:15:27.267Z,6.35
2018-05-09T04:17:54.685Z,6.70
2018-05-09T04:20:22.100Z,6.25
2018-05-09T04:22:50.290Z,5.75
2018-05-09T04:25:17.916Z,6.05
2018-05-09T04:27:45.337Z,6.18
2018-05-09T04:30:12.917Z,6.68
2018-05-09T04:32:41.076Z,6.05
2018-05-09T04:35:09.254Z,5.93
2018-05-09T04:37:37.473Z,6.97
2018-05-09T04:40:04.888Z,6.32
2018-05-09T04:42:32.316Z,6.20
2018-05-09T04:44:59.782Z,6.15
2018-05-09T04:47:27.245Z,5.60
2018-05-09T04:49:54.618Z,5.95
2018-05-09T04:52:22.045Z,6.05
2018-05-09T04:54:49.459Z,6.35
2018-05-09T04:57:16.932Z,5.35
2018-05-09T04:59:45.098Z,5.62
2018-05-09T05:02:13.293Z,6.00
2018-05-09T05:04:40.769Z,5.75
2018-05-09T05:07:09.097Z,5.70
2018-05-09T05:09:36.518Z,6.10
2018-05-09T05:12:04.703Z,5.12
2018-05-09T05:14:32.909Z,6.00
2018-05-09T05:17:00.325Z,5.05
2018-05-09T05:19:27.741Z,6.55
2018-05-09T05:21:55.157Z,5.85
2018-05-09T05:24:22.568Z,5.50
2018-05-09T05:26:50.061Z,5.47
2018-05-09T05:29:17.472Z,5.80
2018-05-09T05:31:44.891Z,5.70
2018-05-09T05:34:12.305Z,5.65
2018-05-09T05:36:39.715Z,4.75
2018-05-09T05:39:07.897Z,5.90
2018-05-09T05:41:36.069Z,4.95
2018-05-09T05:44:04.296Z,4.57
2018-05-09T05:46:32.483Z,5.25
2018-05-09T05:49:00.640Z,5.12
2018-05-09T05:51:28.821Z,5.37
2018-05-09T05:53:56.244Z,5.20
2018-05-09T05:56:23.680Z,5.32
2018-05-09T05:58:51.159Z,5.72
2018-05-09T06:01:18.569Z,4.45
2018-05-09T06:03:46.005Z,5.15
2018-05-09T06:06:13.406Z,5.62
2018-05-09T06:08:40.937Z,5.78
2018-05-09T06:11:08.348Z,4.82
2018-05-09T06:13:35.763Z,4.85
2018-05-09T06:16:03.251Z,5.22
2018-05-09T06:18:30.718Z,4.50
2018-05-09T06:20:58.137Z,5.10
2018-05-09T06:23:25.559Z,5.07
2018-05-09T06:25:52.970Z,4.37
2018-05-09T06:28:20.400Z,4.53
2018-05-09T06:30:47.795Z,4.07
2018-05-09T06:33:15.229Z,5.10
2018-05-09T06:35:42.652Z,4.00
2018-05-09T06:38:10.065Z,4.32
2018-05-09T06:40:37.481Z,4.40
2018-05-09T06:43:04.904Z,4.60
2018-05-09T06:45:32.325Z,4.80
2018-05-09T06:47:59.736Z,4.32
2018-05-09T06:50:27.207Z,4.55
2018-05-09T06:52:54.625Z,4.55
2018-05-09T06:55:22.164Z,4.82
2018-05-09T06:57:49.582Z,4.03
2018-05-09T07:00:17.005Z,4.70
2018-05-09T07:02:44.430Z,4.17
2018-05-09T07:05:12.621Z,4.80
2018-05-09T07:07:40.795Z,4.50
2018-05-09T07:10:08.226Z,4.90
2018-05-09T07:12:35.695Z,4.47
2018-05-09T07:15:03.102Z,4.30
2018-05-09T07:17:30.618Z,4.43
2018-05-09T07:19:58.096Z,4.00
2018-05-09T07:22:25.562Z,3.93
2018-05-09T07:24:53.730Z,4.00
2018-05-09T07:27:21.909Z,4.33
2018-05-09T07:29:50.123Z,3.33
2018-05-09T07:32:17.592Z,5.27
2018-05-09T07:34:45.126Z,5.37
2018-05-09T07:37:13.229Z,4.87
2018-05-09T07:39:40.712Z,3.97
2018-05-09T07:42:08.187Z,4.35
2018-05-09T07:44:35.554Z,4.22
2018-05-09T07:47:03.033Z,4.78
2018-05-09T07:49:30.490Z,4.15
2018-05-09T07:51:58.073Z,4.75
2018-05-09T07:54:25.470Z,4.93
2018-05-09T07:56:52.889Z,5.28
2018-05-09T07:59:21.077Z,4.10
2018-05-09T08:01:49.277Z,4.40
2018-05-09T08:04:16.695Z,5.05
2018-05-09T08:06:44.126Z,4.47
2018-05-09T08:09:11.541Z,4.47
2018-05-09T08:11:39.738Z,5.00
2018-05-09T08:14:07.925Z,4.80
2018-05-09T08:16:35.446Z,5.28
2018-05-09T08:19:02.903Z,4.60
2018-05-09T08:21:30.328Z,4.95
2018-05-09T08:23:57.741Z,5.22
2018-05-09T08:26:25.170Z,4.72
2018-05-09T08:28:52.590Z,4.55
2018-05-09T08:31:20.054Z,4.93
2018-05-09T08:33:47.460Z,4.40
2018-05-09T08:36:15.073Z,4.75
2018-05-09T08:38:42.401Z,4.95
2018-05-09T08:41:09.836Z,4.82
2018-05-09T08:43:37.323Z,5.03
2018-05-09T08:46:04.673Z,4.75
2018-05-09T08:48:32.140Z,4.72
2018-05-09T08:51:00.321Z,5.40
2018-05-09T08:53:28.506Z,5.03
2018-05-09T08:55:56.694Z,5.43
2018-05-09T08:58:24.901Z,5.12
2018-05-09T09:00:52.321Z,4.37
2018-05-09T09:03:19.747Z,4.95
2018-05-09T09:05:47.161Z,5.40
2018-05-09T09:08:14.685Z,4.57
2018-05-09T09:10:42.255Z,4.80
2018-05-09T09:13:09.668Z,4.60
2018-05-09T09:15:37.095Z,4.70
2018-05-09T09:18:04.501Z,5.25
2018-05-09T09:20:32.029Z,5.10
2018-05-09T09:22:59.449Z,5.05
2018-05-09T09:25:26.970Z,4.95
2018-05-09T09:27:54.388Z,5.03
2018-05-09T09:30:21.812Z,4.45
2018-05-09T09:32:49.224Z,4.47
2018-05-09T09:35:16.744Z,5.05
2018-05-09T09:37:44.186Z,5.00
2018-05-09T09:40:12.401Z,5.30
2018-05-09T09:42:39.825Z,5.35
2018-05-09T09:45:07.350Z,4.97
2018-05-09T09:47:34.813Z,4.60
2018-05-09T09:50:02.247Z,5.20
2018-05-09T09:52:29.798Z,4.97
2018-05-09T09:54:57.234Z,5.12
2018-05-09T09:57:24.642Z,4.82
2018-05-09T09:59:52.062Z,4.55
2018-05-09T10:02:19.486Z,5.10
2018-05-09T10:04:46.904Z,4.62
2018-05-09T10:07:14.484Z,4.50
2018-05-09T10:09:41.950Z,4.80
2018-05-09T10:12:09.383Z,4.60
2018-05-09T10:14:37.560Z,4.70
2018-05-09T10:17:05.075Z,4.90
2018-05-09T10:19:32.489Z,4.97
2018-05-09T10:21:59.905Z,5.10
2018-05-09T10:24:27.317Z,4.40
2018-05-09T10:26:54.748Z,5.33
2018-05-09T10:29:22.329Z,4.90
2018-05-09T10:31:50.502Z,5.20
2018-05-09T10:34:17.912Z,5.10
2018-05-09T10:36:45.445Z,4.77
2018-05-09T10:39:12.861Z,5.10
2018-05-09T10:41:40.292Z,4.80
2018-05-09T10:44:07.752Z,4.83
2018-05-09T10:46:35.254Z,4.90
2018-05-09T10:49:02.702Z,4.70
2018-05-09T10:51:30.146Z,4.83
2018-05-09T10:53:57.632Z,4.90
2018-05-09T10:56:25.054Z,4.60
2018-05-09T10:58:52.465Z,4.67
2018-05-09T11:01:19.894Z,4.22
2018-05-09T11:03:47.309Z,4.70
2018-05-09T11:06:14.737Z,5.40
2018-05-09T11:08:42.171Z,4.75
2018-05-09T11:11:09.588Z,5.32
2018-05-09T11:13:37.783Z,4.93
2018-05-09T11:16:05.987Z,4.62
2018-05-09T11:18:33.415Z,4.50
2018-05-09T11:21:00.841Z,5.07
2018-05-09T11:23:28.261Z,5.60
2018-05-09T11:25:55.778Z,4.50
2018-05-09T11:28:23.208Z,5.18
2018-05-09T11:30:50.625Z,4.67
2018-05-09T11:33:18.069Z,5.15
2018-05-09T11:35:46.272Z,5.65
2018-05-09T11:38:13.708Z,5.22
2018-05-09T11:40:41.888Z,4.97
2018-05-09T11:43:10.113Z,4.93
2018-05-09T11:45:37.525Z,4.90
2018-05-09T11:48:04.956Z,4.43
2018-05-09T11:50:32.427Z,5.70
2018-05-09T11:52:59.873Z,4.63
2018-05-09T11:55:27.370Z,4.60
2018-05-09T11:57:54.772Z,5.25
2018-05-09T12:00:22.209Z,5.00
2018-05-09T12:02:49.634Z,4.75
2018-05-09T12:05:17.827Z,5.50
2018-05-09T12:07:46.023Z,5.55
2018-05-09T12:10:14.205Z,4.53
2018-05-09T12:12:42.400Z,5.15
2018-05-09T12:15:10.590Z,4.90
2018-05-09T12:17:38.018Z,5.50
2018-05-09T12:20:05.452Z,4.72
2018-05-09T12:22:32.870Z,4.78
2018-05-09T12:25:00.285Z,5.00
2018-05-09T12:27:27.709Z,5.55
2018-05-09T12:29:55.135Z,5.82
2018-05-09T12:32:22.564Z,5.07
2018-05-09T12:34:50.789Z,5.60
2018-05-09T12:37:18.195Z,5.35
2018-05-09T12:39:45.614Z,5.40
2018-05-09T12:42:13.086Z,5.30
2018-05-09T12:44:40.502Z,5.53
2018-05-09T12:47:07.930Z,5.20
2018-05-09T12:49:35.344Z,5.50
2018-05-09T12:52:02.865Z,6.47
2018-05-09T12:54:30.341Z,5.80
2018-05-09T12:56:57.803Z,5.60
2018-05-09T12:59:25.219Z,6.12
2018-05-09T13:01:52.645Z,6.05
2018-05-09T13:04:20.073Z,5.90
2018-05-09T13:06:47.498Z,5.40
2018-05-09T13:09:14.920Z,6.30
2018-05-09T13:11:43.116Z,5.18
2018-05-09T13:14:11.332Z,5.32
2018-05-09T13:16:38.794Z,5.15
2018-05-09T13:19:06.217Z,5.57
2018-05-09T13:21:33.637Z,5.40
2018-05-09T13:24:01.097Z,5.45
2018-05-09T13:26:28.578Z,5.57
2018-05-09T13:28:56.001Z,5.05
2018-05-09T13:31:23.521Z,5.18
2018-05-09T13:33:50.985Z,5.15
2018-05-09T13:36:18.400Z,5.40
2018-05-09T13:38:45.833Z,4.57
2018-05-09T13:41:13.243Z,4.85
2018-05-09T13:43:40.682Z,5.45
2018-05-09T13:46:08.217Z,4.97
2018-05-09T13:48:36.785Z,5.23
2018-05-09T13:51:04.193Z,5.60
2018-05-09T13:53:31.626Z,5.70
2018-05-09T13:55:59.048Z,4.70
2018-05-09T13:58:26.505Z,5.32
2018-05-09T14:00:53.969Z,6.25
2018-05-09T14:03:21.361Z,5.37
2018-05-09T14:05:48.822Z,5.07
2018-05-09T14:08:16.247Z,5.30
2018-05-09T14:10:43.770Z,5.97
2018-05-09T14:13:11.194Z,5.90
2018-05-09T14:15:38.721Z,5.90
2018-05-09T14:18:06.033Z,5.20
2018-05-09T14:20:34.221Z,5.00
2018-05-09T14:23:02.445Z,5.15
2018-05-09T14:25:29.837Z,5.03
2018-05-09T14:27:57.272Z,5.28
2018-05-09T14:30:24.698Z,5.07
2018-05-09T14:32:52.130Z,4.80
2018-05-09T14:35:19.557Z,4.47
2018-05-09T14:37:47.744Z,4.32
2018-05-09T14:40:15.969Z,5.73
2018-05-09T14:42:43.405Z,4.62
2018-05-09T14:45:11.631Z,4.40
2018-05-09T14:47:39.783Z,5.70
2018-05-09T14:50:07.209Z,4.32
2018-05-09T14:52:34.633Z,4.47
2018-05-09T14:55:02.070Z,4.80
2018-05-09T14:57:30.269Z,4.93
2018-05-09T14:59:57.740Z,5.10
2018-05-09T15:02:25.154Z,4.70
2018-05-09T15:04:53.373Z,4.60
2018-05-09T15:07:20.853Z,4.70
2018-05-09T15:09:48.313Z,5.12
2018-05-09T15:12:15.733Z,4.40
2018-05-09T15:14:43.165Z,5.00
2018-05-09T15:17:10.598Z,4.10
2018-05-09T15:19:38.834Z,4.55
2018-05-09T15:22:07.004Z,4.32
2018-05-09T15:24:34.476Z,4.60
2018-05-09T15:27:01.888Z,4.43
2018-05-09T15:29:29.400Z,4.78
2018-05-09T15:31:56.821Z,4.20
2018-05-09T15:34:24.244Z,4.15
2018-05-09T15:36:51.723Z,3.95
2018-05-09T15:39:19.138Z,4.55
2018-05-09T15:41:46.558Z,4.20
2018-05-09T15:44:13.972Z,4.65
2018-05-09T15:46:41.390Z,4.28
2018-05-09T15:49:08.870Z,4.90
2018-05-09T15:51:36.351Z,4.00
2018-05-09T15:54:03.752Z,4.10
2018-05-09T15:56:31.274Z,4.25
2018-05-09T15:58:58.749Z,4.10
2018-05-09T16:01:26.936Z,3.37
2018-05-09T16:03:55.101Z,3.30
2018-05-09T16:06:23.282Z,4.15
2018-05-09T16:08:51.469Z,4.05
2018-05-09T16:11:19.655Z,4.57
2018-05-09T16:13:47.872Z,3.85
2018-05-09T16:16:16.028Z,3.62
2018-05-09T16:18:44.247Z,4.07
2018-05-09T16:21:11.714Z,3.60
2018-05-09T16:23:39.218Z,3.92
2018-05-09T16:26:06.550Z,4.20
2018-05-09T16:28:33.970Z,5.12
2018-05-09T16:31:01.390Z,3.92
2018-05-09T16:33:28.815Z,4.62
2018-05-09T16:35:56.257Z,4.95
2018-05-09T16:38:24.521Z,4.78
2018-05-09T16:40:52.697Z,4.78
2018-05-09T16:43:20.121Z,4.28
2018-05-09T16:45:47.538Z,4.68
2018-05-09T16:48:14.972Z,5.10
2018-05-09T16:50:42.384Z,4.60
2018-05-09T16:53:09.806Z,4.07
2018-05-09T16:55:37.226Z,4.20
2018-05-09T16:58:04.677Z,4.80
2018-05-09T17:00:32.093Z,4.40
2018-05-09T17:02:59.521Z,4.05
2018-05-09T17:05:27.031Z,4.12
2018-05-09T17:07:54.362Z,3.87
2018-05-09T17:10:21.813Z,4.32
2018-05-09T17:12:49.984Z,3.72
2018-05-09T17:15:18.172Z,3.92
2018-05-09T17:17:45.593Z,4.00
2018-05-09T17:20:13.047Z,4.43
2018-05-09T17:22:40.461Z,4.47
2018-05-09T17:25:07.882Z,4.32
2018-05-09T17:27:35.297Z,4.03
2018-05-09T17:30:02.716Z,4.22
2018-05-09T17:32:30.184Z,4.62
2018-05-09T17:34:57.610Z,3.95
2018-05-09T17:37:25.035Z,5.07
2018-05-09T17:39:52.442Z,5.00
2018-05-09T17:42:19.853Z,4.85
2018-05-09T17:44:48.041Z,4.55
2018-05-09T17:47:15.461Z,4.62
2018-05-09T17:49:42.880Z,5.60
2018-05-09T17:52:11.069Z,5.28
2018-05-09T17:54:38.493Z,5.43
2018-05-09T17:57:05.921Z,4.70
2018-05-09T17:59:33.330Z,4.75
2018-05-09T18:02:00.751Z,4.62
2018-05-09T18:04:28.194Z,4.55
2018-05-09T18:06:55.609Z,4.97
2018-05-09T18:09:23.067Z,5.87
2018-05-09T18:11:50.486Z,6.07
2018-05-09T18:14:17.915Z,5.93
2018-05-09T18:16:45.321Z,5.15
2018-05-09T18:19:12.746Z,5.68
2018-05-09T18:21:40.149Z,5.43
2018-05-09T18:24:07.569Z,5.25
2018-05-09T18:26:34.988Z,5.25
2018-05-09T18:29:02.400Z,6.18
2018-05-09T18:31:30.608Z,5.60
2018-05-09T18:33:58.804Z,12.90
2018-05-09T18:36:26.952Z,7.72
2018-05-09T18:38:55.170Z,7.53
2018-05-09T18:41:22.590Z,5.87
2018-05-09T18:43:50.113Z,4.80
2018-05-09T18:46:17.534Z,4.95
2018-05-09T18:48:44.942Z,5.00
2018-05-09T18:51:12.357Z,4.37
2018-05-09T18:53:39.788Z,4.37
2018-05-09T18:56:07.206Z,4.95
2018-05-09T18:58:34.723Z,5.45
2018-05-09T19:01:02.137Z,4.50
2018-05-09T19:03:30.313Z,5.80
2018-05-09T19:05:57.743Z,6.00
2018-05-09T19:08:25.195Z,5.50
2018-05-09T19:10:53.385Z,4.93
2018-05-09T19:13:21.590Z,4.62
2018-05-09T19:15:49.060Z,5.25
2018-05-09T19:18:16.473Z,5.30
2018-05-09T19:20:43.897Z,6.43
2018-05-09T19:23:11.319Z,5.75
2018-05-09T19:25:38.734Z,6.05
2018-05-09T19:28:06.148Z,6.35
2018-05-09T19:30:33.581Z,6.65
2018-05-09T19:33:01.055Z,6.55
2018-05-09T19:35:29.221Z,7.20
2018-05-09T19:37:56.637Z,7.87
2018-05-09T19:40:24.075Z,6.82
2018-05-09T19:42:51.477Z,6.62
2018-05-09T19:45:18.898Z,6.90
2018-05-09T19:47:47.087Z,6.25
2018-05-09T19:50:15.281Z,7.45
2018-05-09T19:52:42.754Z,6.90
2018-05-09T19:55:10.314Z,6.75
2018-05-09T19:57:37.641Z,7.70
2018-05-09T20:00:05.071Z,7.72
2018-05-09T20:02:32.474Z,6.70
2018-05-09T20:04:59.893Z,7.00
2018-05-09T20:07:27.309Z,6.45
2018-05-09T20:09:54.733Z,7.37
2018-05-09T20:12:22.149Z,6.40
2018-05-09T20:14:49.582Z,6.62
2018-05-09T20:17:17.740Z,7.32
2018-05-09T20:19:45.924Z,6.70
2018-05-09T20:22:14.105Z,7.87
2018-05-09T20:24:42.301Z,10.40
2018-05-09T20:27:09.721Z,10.40
2018-05-09T20:29:37.136Z,8.30
2018-05-09T20:32:17.225Z,10.10
2018-05-09T20:34:44.670Z,9.77
2018-05-09T20:37:12.854Z,8.77
2018-05-09T20:39:40.277Z,7.75
2018-05-09T20:42:07.725Z,7.57
2018-05-09T20:44:35.122Z,9.77
2018-05-09T20:47:02.541Z,8.38
2018-05-09T20:49:30.721Z,8.52
2018-05-09T20:51:58.913Z,8.63
2018-05-09T20:54:27.084Z,8.25
2018-05-09T20:56:54.510Z,8.32
2018-05-09T20:59:21.925Z,9.07
2018-05-09T21:01:49.350Z,9.82
2018-05-09T21:04:16.765Z,10.32
2018-05-09T21:06:44.275Z,7.85
2018-05-09T21:09:12.501Z,9.15
2018-05-09T21:11:41.417Z,8.73
2018-05-09T21:14:08.928Z,8.65
2018-05-09T21:16:36.409Z,9.23
2018-05-09T21:19:03.867Z,9.63
2018-05-09T21:21:31.294Z,10.13
2018-05-09T21:23:58.724Z,7.90
2018-05-09T21:26:26.141Z,8.68
2018-05-09T21:28:53.554Z,8.65
2018-05-09T21:31:20.987Z,9.43
2018-05-09T21:33:48.405Z,9.65
2018-05-09T21:36:15.832Z,8.07
2018-05-09T21:38:44.153Z,8.25
2018-05-09T21:41:11.561Z,8.05
2018-05-09T21:43:39.011Z,7.95
2018-05-09T21:46:06.445Z,7.78
2018-05-09T21:48:33.861Z,6.75
2018-05-09T21:51:01.280Z,6.95
2018-05-09T21:53:28.726Z,6.55
2018-05-09T21:55:56.333Z,7.12
2018-05-09T21:58:23.678Z,6.45
2018-05-09T22:00:51.886Z,7.22
2018-05-09T22:03:19.322Z,6.90
2018-05-09T22:05:46.741Z,6.53
2018-05-09T22:08:14.195Z,6.55
2018-05-09T22:10:41.612Z,6.82
2018-05-09T22:13:09.037Z,6.43
2018-05-09T22:15:36.453Z,6.95
2018-05-09T22:18:03.875Z,6.28
2018-05-09T22:20:31.407Z,6.43
2018-05-09T22:22:59.550Z,7.47
2018-05-09T22:25:26.961Z,7.15
2018-05-09T22:27:54.406Z,6.60
2018-05-09T22:30:21.822Z,6.85
2018-05-09T22:32:50.010Z,6.97
2018-05-09T22:35:18.222Z,6.65
2018-05-09T22:37:46.397Z,6.85
2018-05-09T22:40:13.889Z,7.55
2018-05-09T22:42:41.314Z,7.07
2018-05-09T22:45:08.720Z,7.28
2018-05-09T22:47:36.187Z,7.82
2018-05-09T22:50:04.345Z,6.90
2018-05-09T22:52:32.532Z,7.68
2018-05-09T22:55:00.800Z,7.35
2018-05-09T22:57:28.171Z,6.72
2018-05-09T22:59:55.576Z,6.78
2018-05-09T23:02:22.992Z,6.80
2018-05-09T23:04:50.413Z,7.05
2018-05-09T23:07:17.895Z,7.60
2018-05-09T23:09:46.074Z,7.72
2018-05-09T23:12:13.485Z,7.62
2018-05-09T23:14:40.900Z,6.90
2018-05-09T23:17:08.335Z,8.05
2018-05-09T23:19:35.755Z,7.25
2018-05-09T23:22:03.166Z,7.32
2018-05-09T23:24:30.597Z,6.95
2018-05-09T23:26:58.006Z,7.55
2018-05-09T23:29:25.453Z,7.25
2018-05-09T23:31:52.910Z,6.97
2018-05-09T23:34:20.372Z,7.30
2018-05-09T23:36:48.534Z,7.50
2018-05-09T23:39:16.723Z,7.10
2018-05-09T23:41:44.929Z,7.32
2018-05-09T23:44:12.354Z,6.95
2018-05-09T23:46:41.271Z,7.10
2018-05-09T23:49:09.489Z,7.15
2018-05-09T23:51:36.906Z,7.10
2018-05-09T23:54:04.316Z,6.75
2018-05-09T23:56:31.741Z,7.10
2018-05-09T23:58:59.145Z,7.10
